createdAt,value
2017-07-03T00:00:59.346Z,64.36
2017-07-03T00:03:26.744Z,64.12
2017-07-03T00:05:54.140Z,63.67
2017-07-03T00:08:21.547Z,63.53
2017-07-03T00:10:48.939Z,63.68
2017-07-03T00:13:16.344Z,63.88
2017-07-03T00:15:43.741Z,63.86
2017-07-03T00:18:11.143Z,63.98
2017-07-03T00:20:38.526Z,63.76
2017-07-03T00:23:05.926Z,63.72
2017-07-03T00:25:33.314Z,63.39
2017-07-03T00:28:00.716Z,63.31
2017-07-03T00:30:28.162Z,63.62
2017-07-03T00:32:55.568Z,63.36
2017-07-03T00:35:22.956Z,63.36
2017-07-03T00:37:50.354Z,63.45
2017-07-03T00:40:17.751Z,63.45
2017-07-03T00:42:45.144Z,63.62
2017-07-03T00:45:12.535Z,63.62
2017-07-03T00:47:39.936Z,63.54
2017-07-03T00:50:07.323Z,63.11
2017-07-03T00:52:34.722Z,63.44
2017-07-03T00:55:02.114Z,63.76
2017-07-03T00:57:29.521Z,63.65
2017-07-03T00:59:56.923Z,63.24
2017-07-03T01:02:24.327Z,63.68
2017-07-03T01:04:51.729Z,64.27
2017-07-03T01:07:19.115Z,64.52
2017-07-03T01:09:46.508Z,64.60
2017-07-03T01:12:13.906Z,64.42
2017-07-03T01:14:41.517Z,64.70
2017-07-03T01:17:08.911Z,64.25
2017-07-03T01:19:36.316Z,63.93
2017-07-03T01:22:03.716Z,64.38
2017-07-03T01:24:31.347Z,64.58
2017-07-03T01:26:58.751Z,64.53
2017-07-03T01:29:26.159Z,64.75
2017-07-03T01:31:53.554Z,64.57
2017-07-03T01:34:20.955Z,64.42
2017-07-03T01:36:48.348Z,64.53
2017-07-03T01:39:15.744Z,64.61
2017-07-03T01:41:43.140Z,64.30
2017-07-03T01:44:10.538Z,64.10
2017-07-03T01:46:37.931Z,64.91
2017-07-03T01:49:05.327Z,64.77
2017-07-03T01:51:32.719Z,65.03
2017-07-03T01:54:00.123Z,65.54
2017-07-03T01:56:27.512Z,65.52
2017-07-03T01:58:54.914Z,65.51
2017-07-03T02:01:22.303Z,65.67
2017-07-03T02:03:49.707Z,65.77
2017-07-03T02:06:17.099Z,65.67
2017-07-03T02:08:44.494Z,65.77
2017-07-03T02:11:11.900Z,65.64
2017-07-03T02:13:39.292Z,65.96
2017-07-03T02:16:06.695Z,65.63
2017-07-03T02:18:34.087Z,65.62
2017-07-03T02:21:01.495Z,66.00
2017-07-03T02:23:28.891Z,65.65
2017-07-03T02:25:56.287Z,65.63
2017-07-03T02:28:23.737Z,65.80
2017-07-03T02:30:51.135Z,65.52
2017-07-03T02:33:18.518Z,66.10
2017-07-03T02:35:45.923Z,65.89
2017-07-03T02:38:13.617Z,66.25
2017-07-03T02:40:41.023Z,66.64
2017-07-03T02:43:08.417Z,66.30
2017-07-03T02:45:35.810Z,65.97
2017-07-03T02:48:03.213Z,66.14
2017-07-03T02:50:30.609Z,66.57
2017-07-03T02:52:57.997Z,66.68
2017-07-03T02:55:25.408Z,66.93
2017-07-03T02:57:52.787Z,66.75
2017-07-03T03:00:20.191Z,66.95
2017-07-03T03:02:47.580Z,66.90
2017-07-03T03:05:14.995Z,67.13
2017-07-03T03:07:42.387Z,67.10
2017-07-03T03:10:09.799Z,67.20
2017-07-03T03:12:42.920Z,66.68
2017-07-03T03:15:10.313Z,66.59
2017-07-03T03:17:37.710Z,66.92
2017-07-03T03:20:05.106Z,66.85
2017-07-03T03:22:32.499Z,66.66
2017-07-03T03:24:59.898Z,66.73
2017-07-03T03:27:27.295Z,67.18
2017-07-03T03:29:54.691Z,67.35
2017-07-03T03:32:22.087Z,67.78
2017-07-03T03:34:49.495Z,68.30
2017-07-03T03:37:16.874Z,68.21
2017-07-03T03:39:44.277Z,67.68
2017-07-03T03:42:11.670Z,68.00
2017-07-03T03:44:39.079Z,68.01
2017-07-03T03:47:06.467Z,67.56
2017-07-03T03:49:34.067Z,67.91
2017-07-03T03:52:01.471Z,68.24
2017-07-03T03:54:28.859Z,67.78
2017-07-03T03:56:56.259Z,68.05
2017-07-03T03:59:23.652Z,67.85
2017-07-03T04:01:51.051Z,68.07
2017-07-03T04:04:18.451Z,67.89
2017-07-03T04:06:45.848Z,68.10
2017-07-03T04:09:13.241Z,68.73
2017-07-03T04:11:40.640Z,68.47
2017-07-03T04:14:08.323Z,68.29
2017-07-03T04:16:35.717Z,68.41
2017-07-03T04:19:03.323Z,68.39
2017-07-03T04:21:30.727Z,68.29
2017-07-03T04:23:58.126Z,68.83
2017-07-03T04:26:25.526Z,69.86
2017-07-03T04:28:52.930Z,69.77
2017-07-03T04:31:20.327Z,70.18
2017-07-03T04:33:47.962Z,69.77
2017-07-03T04:36:15.363Z,69.71
2017-07-03T04:38:42.763Z,69.93
2017-07-03T04:41:10.167Z,69.63
2017-07-03T04:43:37.568Z,70.21
2017-07-03T04:46:04.962Z,70.08
2017-07-03T04:48:32.350Z,71.41
2017-07-03T04:50:59.759Z,70.81
2017-07-03T04:53:27.164Z,70.73
2017-07-03T04:55:54.568Z,71.40
2017-07-03T04:58:22.935Z,70.91
2017-07-03T05:00:50.330Z,70.68
2017-07-03T05:03:17.728Z,70.97
2017-07-03T05:05:45.119Z,71.33
2017-07-03T05:08:12.527Z,72.09
2017-07-03T05:10:40.223Z,71.95
2017-07-03T05:13:07.623Z,71.96
2017-07-03T05:15:35.021Z,72.75
2017-07-03T05:18:02.423Z,72.02
2017-07-03T05:20:29.834Z,72.27
2017-07-03T05:22:57.239Z,73.05
2017-07-03T05:25:24.634Z,73.09
2017-07-03T05:27:52.030Z,72.83
2017-07-03T05:30:19.433Z,73.16
2017-07-03T05:32:46.826Z,74.11
2017-07-03T05:35:14.228Z,74.20
2017-07-03T05:37:41.637Z,74.19
2017-07-03T05:40:09.063Z,74.08
2017-07-03T05:42:42.048Z,74.32
2017-07-03T05:45:09.738Z,74.69
2017-07-03T05:47:37.159Z,74.73
2017-07-03T05:50:04.535Z,74.58
2017-07-03T05:52:31.935Z,74.03
2017-07-03T05:54:59.323Z,74.28
2017-07-03T05:57:26.715Z,73.55
2017-07-03T05:59:54.120Z,73.92
2017-07-03T06:02:21.523Z,73.63
2017-07-03T06:04:59.371Z,73.39
2017-07-03T06:07:26.763Z,73.46
2017-07-03T06:09:54.160Z,73.30
2017-07-03T06:12:21.563Z,73.33
2017-07-03T06:14:48.971Z,72.94
2017-07-03T06:17:16.363Z,73.05
2017-07-03T06:19:43.763Z,71.93
2017-07-03T06:22:11.154Z,72.00
2017-07-03T06:24:38.563Z,71.68
2017-07-03T06:27:05.963Z,72.53
2017-07-03T06:29:33.363Z,71.76
2017-07-03T06:32:00.759Z,70.77
2017-07-03T06:34:28.159Z,70.20
2017-07-03T06:36:55.551Z,71.05
2017-07-03T06:39:23.748Z,70.84
2017-07-03T06:41:51.140Z,71.14
2017-07-03T06:44:18.538Z,70.69
2017-07-03T06:46:45.936Z,70.60
2017-07-03T06:49:13.348Z,70.12
2017-07-03T06:51:40.731Z,69.56
2017-07-03T06:54:08.131Z,68.96
2017-07-03T06:56:35.527Z,68.33
2017-07-03T06:59:02.931Z,69.34
2017-07-03T07:01:30.322Z,68.20
2017-07-03T07:03:57.734Z,68.16
2017-07-03T07:06:25.131Z,68.12
2017-07-03T07:08:52.531Z,67.67
2017-07-03T07:11:20.029Z,67.52
2017-07-03T07:13:47.418Z,67.22
2017-07-03T07:16:14.806Z,65.72
2017-07-03T07:18:42.214Z,66.04
2017-07-03T07:21:09.601Z,65.77
2017-07-03T07:23:38.588Z,64.80
2017-07-03T07:26:06.186Z,64.59
2017-07-03T07:28:33.586Z,64.07
2017-07-03T07:31:00.970Z,64.33
2017-07-03T07:33:28.379Z,63.91
2017-07-03T07:35:55.772Z,64.45
2017-07-03T07:38:23.159Z,62.77
2017-07-03T07:40:50.562Z,63.48
2017-07-03T07:43:17.947Z,63.29
2017-07-03T07:45:45.343Z,63.49
2017-07-03T07:48:12.726Z,61.25
2017-07-03T07:50:40.118Z,61.57
2017-07-03T07:53:07.723Z,61.15
2017-07-03T07:55:35.119Z,60.81
2017-07-03T07:58:02.511Z,61.97
2017-07-03T08:00:29.912Z,61.08
2017-07-03T08:02:57.511Z,59.66
2017-07-03T08:05:24.915Z,59.73
2017-07-03T08:07:52.311Z,59.35
2017-07-03T08:10:19.710Z,58.34
2017-07-03T08:12:47.101Z,59.12
2017-07-03T08:15:14.508Z,60.23
2017-07-03T08:17:41.910Z,59.83
2017-07-03T08:20:09.296Z,59.45
2017-07-03T08:22:36.724Z,56.27
2017-07-03T08:25:04.103Z,56.60
2017-07-03T08:27:31.510Z,58.19
2017-07-03T08:29:59.723Z,57.50
2017-07-03T08:32:27.127Z,55.90
2017-07-03T08:34:54.526Z,56.20
2017-07-03T08:37:21.919Z,57.13
2017-07-03T08:39:49.325Z,57.99
2017-07-03T08:42:16.716Z,57.05
2017-07-03T08:44:44.107Z,58.06
2017-07-03T08:47:11.509Z,58.43
2017-07-03T08:49:38.912Z,56.68
2017-07-03T08:52:06.308Z,56.58
2017-07-03T08:54:33.698Z,54.48
2017-07-03T08:57:01.323Z,54.36
2017-07-03T08:59:28.699Z,54.45
2017-07-03T09:01:56.102Z,53.93
2017-07-03T09:04:23.496Z,53.92
2017-07-03T09:06:50.906Z,53.55
2017-07-03T09:09:18.300Z,53.73
2017-07-03T09:11:45.740Z,53.44
2017-07-03T09:14:13.134Z,53.92
2017-07-03T09:16:40.531Z,53.84
2017-07-03T09:19:08.138Z,53.13
2017-07-03T09:21:35.766Z,52.82
2017-07-03T09:24:03.151Z,53.53
2017-07-03T09:26:30.555Z,52.51
2017-07-03T09:28:57.942Z,52.34
2017-07-03T09:31:25.341Z,52.46
2017-07-03T09:33:52.723Z,53.17
2017-07-03T09:36:20.116Z,52.60
2017-07-03T09:38:47.504Z,53.27
2017-07-03T09:41:14.902Z,53.52
2017-07-03T09:43:42.291Z,50.01
2017-07-03T09:46:09.699Z,50.20
2017-07-03T09:48:37.091Z,52.47
2017-07-03T09:51:04.487Z,52.44
2017-07-03T09:53:31.879Z,53.23
2017-07-03T09:55:59.307Z,52.12
2017-07-03T09:58:26.695Z,51.49
2017-07-03T10:00:54.090Z,50.15
2017-07-03T10:03:21.495Z,50.15
2017-07-03T10:05:48.884Z,50.70
2017-07-03T10:08:16.279Z,49.61
2017-07-03T10:10:43.671Z,50.01
2017-07-03T10:13:11.080Z,48.91
2017-07-03T10:15:38.468Z,49.97
2017-07-03T10:18:05.894Z,48.42
2017-07-03T10:20:33.287Z,48.99
2017-07-03T10:23:01.570Z,49.65
2017-07-03T10:25:29.041Z,49.17
2017-07-03T10:27:56.655Z,49.64
2017-07-03T10:30:24.044Z,49.81
2017-07-03T10:32:51.655Z,48.30
2017-07-03T10:35:19.047Z,48.84
2017-07-03T10:37:46.459Z,48.21
2017-07-03T10:40:13.851Z,48.06
2017-07-03T10:42:41.250Z,48.33
2017-07-03T10:45:08.642Z,47.15
2017-07-03T10:47:36.080Z,48.41
2017-07-03T10:50:03.465Z,48.75
2017-07-03T10:52:30.871Z,47.94
2017-07-03T10:54:58.275Z,52.42
2017-07-03T10:57:25.667Z,48.04
2017-07-03T10:59:53.051Z,46.52
2017-07-03T11:02:20.447Z,46.83
2017-07-03T11:04:47.835Z,46.69
2017-07-03T11:07:15.235Z,47.65
2017-07-03T11:09:42.620Z,47.13
2017-07-03T11:12:10.015Z,47.95
2017-07-03T11:14:37.413Z,46.90
2017-07-03T11:17:04.807Z,47.90
2017-07-03T11:19:32.211Z,46.52
2017-07-03T11:21:59.604Z,44.81
2017-07-03T11:24:27.007Z,45.01
2017-07-03T11:26:54.456Z,44.81
2017-07-03T11:29:21.851Z,44.46
2017-07-03T11:31:49.279Z,44.31
2017-07-03T11:34:16.679Z,45.39
2017-07-03T11:36:44.931Z,43.91
2017-07-03T11:39:12.327Z,46.41
2017-07-03T11:41:39.718Z,44.04
2017-07-03T11:44:07.124Z,44.78
2017-07-03T11:46:34.518Z,46.17
2017-07-03T11:49:01.918Z,46.85
2017-07-03T11:51:29.312Z,46.06
2017-07-03T11:53:56.711Z,43.76
2017-07-03T11:56:24.095Z,44.02
2017-07-03T11:58:51.499Z,44.88
2017-07-03T12:01:18.883Z,43.95
2017-07-03T12:03:46.283Z,44.38
2017-07-03T12:06:13.682Z,44.61
2017-07-03T12:08:41.076Z,44.30
2017-07-03T12:11:08.485Z,44.37
2017-07-03T12:13:35.883Z,43.87
2017-07-03T12:16:03.302Z,43.46
2017-07-03T12:18:30.882Z,43.82
2017-07-03T12:20:58.266Z,44.59
2017-07-03T12:23:25.669Z,43.72
2017-07-03T12:25:53.059Z,42.81
2017-07-03T12:28:20.463Z,42.68
2017-07-03T12:30:47.858Z,42.79
2017-07-03T12:33:15.258Z,43.84
2017-07-03T12:35:42.655Z,43.54
2017-07-03T12:38:10.043Z,44.25
2017-07-03T12:40:37.439Z,43.64
2017-07-03T12:43:04.832Z,44.33
2017-07-03T12:45:32.915Z,42.62
2017-07-03T12:48:00.307Z,43.15
2017-07-03T12:50:27.706Z,42.68
2017-07-03T12:52:55.940Z,43.38
2017-07-03T12:55:23.347Z,45.98
2017-07-03T12:57:50.745Z,44.70
2017-07-03T13:00:18.139Z,43.05
2017-07-03T13:02:45.537Z,42.38
2017-07-03T13:05:12.935Z,44.36
2017-07-03T13:07:40.551Z,43.02
2017-07-03T13:10:08.164Z,43.35
2017-07-03T13:12:35.554Z,43.74
2017-07-03T13:15:02.947Z,43.88
2017-07-03T13:17:30.344Z,42.90
2017-07-03T13:19:57.748Z,41.54
2017-07-03T13:22:25.139Z,42.96
2017-07-03T13:24:52.539Z,43.33
2017-07-03T13:27:19.937Z,42.97
2017-07-03T13:29:47.368Z,44.32
2017-07-03T13:32:14.759Z,43.96
2017-07-03T13:34:42.167Z,42.46
2017-07-03T13:37:09.556Z,43.86
2017-07-03T13:39:36.946Z,42.93
2017-07-03T13:42:04.362Z,43.22
2017-07-03T13:44:31.735Z,44.21
2017-07-03T13:46:59.148Z,43.90
2017-07-03T13:49:26.540Z,44.38
2017-07-03T13:51:53.940Z,41.39
2017-07-03T13:54:21.342Z,42.47
2017-07-03T13:56:48.730Z,42.79
2017-07-03T13:59:16.143Z,42.42
2017-07-03T14:01:43.543Z,42.26
2017-07-03T14:04:10.943Z,42.17
2017-07-03T14:06:38.344Z,41.32
2017-07-03T14:09:05.734Z,42.71
2017-07-03T14:11:33.127Z,42.95
2017-07-03T14:14:00.530Z,42.43
2017-07-03T14:16:27.930Z,42.04
2017-07-03T14:18:55.335Z,41.88
2017-07-03T14:21:22.724Z,42.39
2017-07-03T14:23:50.131Z,41.05
2017-07-03T14:26:17.530Z,41.72
2017-07-03T14:28:44.919Z,41.57
2017-07-03T14:31:12.331Z,42.67
2017-07-03T14:33:39.716Z,41.30
2017-07-03T14:36:07.131Z,42.43
2017-07-03T14:38:34.523Z,42.32
2017-07-03T14:41:01.927Z,42.13
2017-07-03T14:43:29.327Z,42.80
2017-07-03T14:45:56.737Z,42.95
2017-07-03T14:48:24.146Z,42.55
2017-07-03T14:50:51.568Z,42.58
2017-07-03T14:53:18.972Z,41.45
2017-07-03T14:55:46.371Z,41.42
2017-07-03T14:58:13.767Z,40.78
2017-07-03T15:00:41.150Z,41.25
2017-07-03T15:03:08.553Z,41.85
2017-07-03T15:05:35.942Z,42.45
2017-07-03T15:08:03.367Z,42.93
2017-07-03T15:10:30.767Z,41.56
2017-07-03T15:12:58.408Z,42.12
2017-07-03T15:15:25.814Z,42.88
2017-07-03T15:17:53.206Z,42.50
2017-07-03T15:20:20.599Z,42.75
2017-07-03T15:22:47.999Z,42.22
2017-07-03T15:25:15.392Z,40.87
2017-07-03T15:27:42.807Z,41.09
2017-07-03T15:30:10.182Z,41.41
2017-07-03T15:32:37.578Z,39.37
2017-07-03T15:35:04.971Z,39.98
2017-07-03T15:37:32.579Z,39.44
2017-07-03T15:39:59.972Z,39.52
2017-07-03T15:42:27.367Z,39.97
2017-07-03T15:44:54.765Z,39.72
2017-07-03T15:47:22.172Z,39.79
2017-07-03T15:49:49.568Z,40.84
2017-07-03T15:52:17.010Z,40.29
2017-07-03T15:54:44.365Z,39.09
2017-07-03T15:57:11.783Z,39.95
2017-07-03T15:59:39.159Z,39.74
2017-07-03T16:02:06.567Z,39.04
2017-07-03T16:04:33.956Z,39.14
2017-07-03T16:07:01.355Z,39.77
2017-07-03T16:09:28.970Z,40.37
2017-07-03T16:11:56.384Z,40.26
2017-07-03T16:14:23.776Z,39.72
2017-07-03T16:16:51.166Z,39.27
2017-07-03T16:19:18.565Z,39.74
2017-07-03T16:21:45.953Z,39.61
2017-07-03T16:24:13.347Z,40.21
2017-07-03T16:26:40.731Z,39.93
2017-07-03T16:29:08.127Z,39.49
2017-07-03T16:31:35.518Z,40.20
2017-07-03T16:34:02.915Z,40.46
2017-07-03T16:36:30.304Z,40.50
2017-07-03T16:38:57.705Z,40.42
2017-07-03T16:41:25.305Z,40.75
2017-07-03T16:43:52.707Z,42.82
2017-07-03T16:46:20.104Z,44.02
2017-07-03T16:48:47.519Z,48.06
2017-07-03T16:51:14.904Z,50.51
2017-07-03T16:53:42.318Z,52.89
2017-07-03T16:56:09.707Z,53.76
2017-07-03T16:58:37.107Z,53.58
2017-07-03T17:01:04.501Z,54.90
2017-07-03T17:03:31.899Z,56.24
2017-07-03T17:05:59.293Z,57.11
2017-07-03T17:08:26.691Z,57.83
2017-07-03T17:10:54.084Z,58.12
2017-07-03T17:13:21.486Z,57.81
2017-07-03T17:15:48.874Z,57.82
2017-07-03T17:18:16.275Z,56.79
2017-07-03T17:20:43.667Z,57.17
2017-07-03T17:23:11.067Z,56.77
2017-07-03T17:25:38.464Z,56.71
2017-07-03T17:28:05.860Z,56.49
2017-07-03T17:30:33.255Z,55.70
2017-07-03T17:33:00.702Z,55.56
2017-07-03T17:35:28.095Z,55.33
2017-07-03T17:37:55.503Z,55.33
2017-07-03T17:40:22.891Z,54.68
2017-07-03T17:42:50.283Z,54.66
2017-07-03T17:45:17.703Z,54.86
2017-07-03T17:47:45.092Z,54.79
2017-07-03T17:50:12.508Z,54.90
2017-07-03T17:52:39.886Z,54.87
2017-07-03T17:55:07.283Z,55.30
2017-07-03T17:57:34.678Z,55.67
2017-07-03T18:00:02.079Z,55.44
2017-07-03T18:02:29.466Z,55.11
2017-07-03T18:04:56.897Z,55.09
2017-07-03T18:07:24.291Z,54.98
2017-07-03T18:09:51.696Z,54.77
2017-07-03T18:12:19.095Z,55.85
2017-07-03T18:14:46.486Z,57.13
2017-07-03T18:17:13.883Z,57.37
2017-07-03T18:19:41.287Z,57.56
2017-07-03T18:22:08.675Z,58.11
2017-07-03T18:24:36.439Z,58.72
2017-07-03T18:27:03.836Z,59.06
2017-07-03T18:29:31.224Z,59.24
2017-07-03T18:31:58.615Z,59.28
2017-07-03T18:34:26.020Z,59.25
2017-07-03T18:36:53.480Z,59.51
2017-07-03T18:39:20.872Z,59.88
2017-07-03T18:41:48.270Z,60.40
2017-07-03T18:44:15.681Z,60.97
2017-07-03T18:46:43.079Z,60.67
2017-07-03T18:49:10.470Z,61.44
2017-07-03T18:51:37.871Z,60.92
2017-07-03T18:54:05.267Z,61.17
2017-07-03T18:56:33.383Z,60.83
2017-07-03T18:59:00.783Z,61.99
2017-07-03T19:01:28.190Z,63.63
2017-07-03T19:03:55.584Z,64.14
2017-07-03T19:06:22.999Z,66.06
2017-07-03T19:08:51.917Z,66.29
2017-07-03T19:11:19.306Z,67.43
2017-07-03T19:13:46.740Z,66.61
2017-07-03T19:16:14.148Z,68.04
2017-07-03T19:18:41.583Z,68.88
2017-07-03T19:21:08.974Z,68.41
2017-07-03T19:23:36.588Z,69.10
2017-07-03T19:26:03.986Z,68.95
2017-07-03T19:28:31.379Z,69.48
2017-07-03T19:30:58.836Z,70.00
2017-07-03T19:33:26.362Z,70.10
2017-07-03T19:36:05.851Z,70.78
2017-07-03T19:38:33.247Z,69.92
2017-07-03T19:41:00.655Z,70.65
2017-07-03T19:43:28.048Z,70.35
2017-07-03T19:45:55.447Z,70.35
2017-07-03T19:48:22.864Z,70.21
2017-07-03T19:50:50.251Z,71.41
2017-07-03T19:53:17.858Z,70.51
2017-07-03T19:55:45.267Z,70.72
2017-07-03T19:58:12.751Z,71.50
2017-07-03T20:00:40.179Z,71.21
2017-07-03T20:03:07.560Z,71.05
2017-07-03T20:05:34.964Z,70.41
2017-07-03T20:08:02.354Z,69.72
2017-07-03T20:10:29.758Z,69.29
2017-07-03T20:12:57.367Z,69.06
2017-07-03T20:15:24.767Z,68.55
2017-07-03T20:17:52.176Z,68.91
2017-07-03T20:20:19.613Z,69.90
2017-07-03T20:22:46.994Z,69.30
2017-07-03T20:25:14.399Z,70.07
2017-07-03T20:27:41.820Z,70.10
2017-07-03T20:30:09.219Z,70.24
2017-07-03T20:32:36.606Z,70.18
2017-07-03T20:35:04.013Z,70.33
2017-07-03T20:37:31.405Z,70.78
2017-07-03T20:39:58.815Z,70.60
2017-07-03T20:42:26.209Z,69.70
2017-07-03T20:44:53.621Z,69.47
2017-07-03T20:47:21.029Z,68.69
2017-07-03T20:49:48.415Z,69.31
2017-07-03T20:52:15.806Z,68.70
2017-07-03T20:54:43.211Z,68.11
2017-07-03T20:57:10.617Z,68.28
2017-07-03T20:59:38.035Z,68.09
2017-07-03T21:02:05.444Z,68.56
2017-07-03T21:04:32.854Z,68.41
2017-07-03T21:07:00.260Z,68.92
2017-07-03T21:09:27.651Z,68.78
2017-07-03T21:11:55.056Z,67.89
2017-07-03T21:14:22.447Z,68.34
2017-07-03T21:16:49.855Z,67.93
2017-07-03T21:19:17.242Z,67.64
2017-07-03T21:21:44.646Z,67.58
2017-07-03T21:24:12.051Z,67.01
2017-07-03T21:26:39.454Z,66.21
2017-07-03T21:29:06.867Z,65.89
2017-07-03T21:31:34.267Z,65.57
2017-07-03T21:34:01.666Z,65.63
2017-07-03T21:36:29.286Z,65.69
2017-07-03T21:38:56.705Z,64.80
2017-07-03T21:41:24.103Z,64.66
2017-07-03T21:43:51.499Z,63.86
2017-07-03T21:46:18.907Z,63.62
2017-07-03T21:48:46.298Z,63.27
2017-07-03T21:51:13.715Z,63.48
2017-07-03T21:53:41.107Z,62.81
2017-07-03T21:56:08.524Z,62.70
2017-07-03T21:58:35.936Z,62.42
2017-07-03T22:01:03.346Z,62.15
2017-07-03T22:03:30.740Z,62.55
2017-07-03T22:05:58.147Z,62.90
2017-07-03T22:08:25.544Z,63.04
2017-07-03T22:10:53.263Z,63.61
2017-07-03T22:13:20.662Z,64.45
2017-07-03T22:15:48.082Z,64.11
2017-07-03T22:18:15.480Z,64.36
2017-07-03T22:20:42.883Z,64.38
2017-07-03T22:23:10.287Z,65.07
2017-07-03T22:25:37.683Z,64.57
2017-07-03T22:28:05.129Z,64.26
2017-07-03T22:30:32.510Z,64.14
2017-07-03T22:32:59.912Z,63.98
2017-07-03T22:35:27.310Z,63.93
2017-07-03T22:37:54.715Z,63.36
2017-07-03T22:40:22.103Z,63.20
2017-07-03T22:42:49.509Z,63.28
2017-07-03T22:45:16.904Z,63.43
2017-07-03T22:47:44.319Z,63.79
2017-07-03T22:50:11.714Z,63.42
2017-07-03T22:52:39.118Z,63.35
2017-07-03T22:55:06.512Z,63.36
2017-07-03T22:57:33.918Z,63.19
2017-07-03T23:00:01.308Z,63.23
2017-07-03T23:02:28.715Z,63.44
2017-07-03T23:04:56.386Z,63.14
2017-07-03T23:07:23.782Z,62.94
2017-07-03T23:09:51.409Z,63.22
2017-07-03T23:12:18.816Z,63.42
2017-07-03T23:14:46.212Z,63.66
2017-07-03T23:17:13.611Z,63.31
2017-07-03T23:19:41.018Z,63.06
2017-07-03T23:22:08.420Z,63.56
2017-07-03T23:24:35.822Z,63.93
2017-07-03T23:27:03.227Z,63.67
2017-07-03T23:29:30.627Z,63.80
2017-07-03T23:31:58.027Z,63.82
2017-07-03T23:34:25.431Z,64.69
2017-07-03T23:36:52.823Z,65.15
2017-07-03T23:39:20.475Z,64.82
2017-07-03T23:41:47.871Z,64.71
2017-07-03T23:44:15.275Z,65.56
2017-07-03T23:46:42.679Z,66.39
2017-07-03T23:49:10.076Z,66.72
2017-07-03T23:51:37.471Z,66.20
2017-07-03T23:54:04.871Z,65.69
2017-07-03T23:56:32.565Z,65.78
2017-07-03T23:58:59.971Z,65.93
